Home > Products > Valid Products > TAF

000
FTUS42 KTBW 011100
TAFFMY
TAF
KFMY 011130Z 0112/0212 VRB03KT P6SM FEW090 SCT250
     FM011600 27006KT P6SM VCSH FEW030 SCT250
     FM011800 26008KT P6SM VCTS SCT035CB BKN250
     FM020100 VRB03KT P6SM FEW035 SCT250=



000
FTUS42 KTBW 011100
TAFRSW
TAF
KRSW 011130Z 0112/0212 VRB03KT P6SM SCT090 BKN250
     FM011600 25006KT P6SM VCSH FEW030 SCT250
     FM011800 25007KT P6SM VCTS SCT035CB BKN250
     FM020100 VRB03KT P6SM FEW035 SCT250=



000
FTUS42 KTBW 011100
TAFPIE
TAF
KPIE 011130Z 0112/0212 VRB03KT P6SM SCT050 SCT250
     FM011400 04006KT P6SM FEW030 SCT250
     FM011700 30009KT P6SM SCT040 BKN250
     FM020200 VRB03KT P6SM FEW040 SCT250=



000
FTUS42 KTBW 011100
TAFTPA
TAF
KTPA 011130Z 0112/0212 VRB03KT P6SM FEW050 SCT250
     FM011500 25006KT P6SM FEW030 SCT250
     FM011800 27009KT P6SM SCT040 BKN250
     FM020100 VRB03KT P6SM FEW040 SCT250=



000
FTUS42 KTBW 011100
TAFSRQ
TAF
KSRQ 011130Z 0112/0212 VRB03KT P6SM FEW050 SCT250
     FM011500 27006KT P6SM FEW030 SCT250
     FM011800 29008KT P6SM VCTS SCT040CB BKN250
     FM020100 VRB03KT P6SM FEW040 SCT250=



000
FTUS42 KTBW 010900 AAA
TAFTPA
TAF AMD
KTPA 010902Z 0109/0206 VRB03KT P6SM FEW050 SCT250
     FM011500 25006KT P6SM FEW030 SCT250
     FM011800 27009KT P6SM SCT040 BKN250
     FM020100 VRB03KT P6SM FEW040 SCT250=



000
FTUS42 KTBW 010500
TAFRSW
TAF
KRSW 010537Z 0106/0206 VRB03KT P6SM SCT090 BKN250
     FM011600 23006KT P6SM VCSH FEW030 SCT250
     FM011800 24007KT P6SM VCTS SCT035CB BKN250
     FM020100 VRB03KT P6SM FEW035 SCT250=



000
FTUS42 KTBW 010500
TAFSRQ
TAF
KSRQ 010537Z 0106/0206 VRB03KT P6SM FEW050 SCT250
     FM011500 27006KT P6SM FEW030 SCT250
     FM011800 29008KT P6SM VCTS SCT040CB BKN250
     FM020100 VRB03KT P6SM FEW040 SCT250=



000
FTUS42 KTBW 010500
TAFTPA
TAF
KTPA 010537Z 0106/0206 VRB03KT P6SM FEW050 SCT250
     FM011500 25006KT P6SM FEW030 SCT250
     FM011800 27009KT P6SM SCT040 BKN250
     FM020100 VRB03KT P6SM FEW040 SCT250=



000
FTUS42 KTBW 010500
TAFFMY
TAF
KFMY 010537Z 0106/0206 VRB03KT P6SM SCT090 BKN250
     FM011600 25006KT P6SM VCSH FEW030 SCT250
     FM011800 26007KT P6SM VCTS SCT035CB BKN250
     FM020100 VRB03KT P6SM FEW035 SCT250=



000
FTUS42 KTBW 010500
TAFPIE
TAF
KPIE 010537Z 0106/0206 VRB03KT P6SM SCT050 SCT250
     FM011400 04006KT P6SM FEW030 SCT250
     FM011800 30009KT P6SM SCT040 BKN250
     FM020200 VRB03KT P6SM FEW040 SCT250=



000
FTUS42 KTBW 010300 AAA
TAFTPA
TAF AMD
KTPA 010306Z 0103/0124 VRB03KT P6SM SCT250
     FM011500 26006KT P6SM FEW030 SCT250
     FM011800 27009KT P6SM VCTS SCT040CB BKN250=



000
FTUS42 KTBW 312300
TAFSRQ
TAF
KSRQ 312335Z 0100/0124 34008KT P6SM FEW040 FEW250
     FM010200 VRB03KT P6SM SCT250
     FM011500 28006KT P6SM FEW030 SCT250
     FM011800 29008KT P6SM VCTS SCT040CB BKN250=



000
FTUS42 KTBW 312300
TAFTPA
TAF
KTPA 312335Z 0100/0124 32009KT P6SM FEW050 FEW250
     FM010200 VRB03KT P6SM SCT250
     FM011500 26006KT P6SM FEW030 SCT250
     FM011800 27009KT P6SM VCTS SCT040CB BKN250=



000
FTUS42 KTBW 312300
TAFFMY
TAF
KFMY 312335Z 0100/0124 13006KT P6SM FEW040 FEW250
     FM010100 VRB03KT P6SM FEW040 SCT250
     FM011500 31005KT P6SM FEW035 SCT250
     FM011800 28007KT P6SM VCTS SCT040CB BKN250=



000
FTUS42 KTBW 312300
TAFRSW
TAF
KRSW 312335Z 0100/0124 14007KT P6SM FEW040 FEW250
     FM010100 VRB03KT P6SM FEW040 SCT250
     FM011500 31005KT P6SM FEW035 SCT250
     FM011800 28007KT P6SM VCTS SCT040CB BKN250=



000
FTUS42 KTBW 312300
TAFPIE
TAF
KPIE 312335Z 0100/0124 32009KT P6SM FEW050 FEW250
     FM010200 VRB03KT P6SM SCT250
     FM011500 01006KT P6SM FEW030 SCT250
     FM011800 30009KT P6SM VCTS SCT040CB BKN250=



000
FTUS42 KTBW 312100 AAA
TAFTPA
TAF AMD
KTPA 312100Z 3121/0118 28009KT P6SM FEW050 SCT250
     FM010100 32004KT P6SM SCT040 SCT250
     FM011600 25005KT P6SM FEW040 SCT100 SCT250=



000
FTUS42 KTBW 311700
TAFPIE
TAF
KPIE 311736Z 3118/0118 32006KT P6SM SCT050 SCT250
     FM010100 32003KT P6SM FEW035 SCT250
     FM011600 04005KT P6SM FEW040 SCT100 SCT250=



000
FTUS42 KTBW 311700
TAFSRQ
TAF
KSRQ 311736Z 3118/0118 28008KT P6SM SCT050 BKN250
     FM010100 33004KT P6SM SCT040 SCT250
     FM011400 VRB04KT P6SM SCT030 SCT100 SCT250
     FM011700 29005KT P6SM FEW035 SCT100 SCT250=



000
FTUS42 KTBW 311700
TAFRSW
TAF
KRSW 311736Z 3118/0118 25006KT P6SM VCTS SCT050CB SCT250
     FM010000 21005KT P6SM SCT040 SCT100 BKN250
     FM010400 00000KT P6SM FEW035 SCT100 SCT250
     FM011500 VRB03KT P6SM VCTS SCT035CB BKN100=



000
FTUS42 KTBW 311700
TAFTPA
TAF
KTPA 311736Z 3118/0118 28008KT P6SM SCT050 SCT250
     FM010100 32004KT P6SM SCT040 SCT250
     FM011600 25005KT P6SM FEW040 SCT100 SCT250=



000
FTUS42 KTBW 311700
TAFFMY
TAF
KFMY 311736Z 3118/0118 27007KT P6SM VCTS SCT050CB SCT250
     FM010000 26006KT P6SM SCT040 SCT100 BKN250
     FM010400 00000KT P6SM FEW035 SCT100 SCT250
     FM011500 VRB03KT P6SM VCTS SCT035CB BKN100=



000
FTUS42 KTBW 311500 AAA
TAFRSW
TAF AMD
KRSW 311515Z 3115/0112 VRB03KT P6SM SCT025 SCT250
      TEMPO 3115/3116 BKN025
     FM311600 26007KT P6SM VCTS SCT035CB BKN250
     FM010100 VRB03KT P6SM FEW040 SCT250=



000
FTUS42 KTBW 311400 AAA
TAFTPA
TAF AMD
KTPA 311459Z 3115/0112 VRB04KT P6SM SCT040 SCT250
     FM311800 27008KT P6SM SCT050 SCT250
     FM010200 VRB03KT P6SM SCT250=



000
FTUS42 KTBW 311100
TAFRSW
TAF
KRSW 311120Z 3112/0112 VRB03KT P6SM FEW040 SCT250
     FM311600 26007KT P6SM VCTS SCT040CB BKN250
     FM010100 VRB03KT P6SM FEW040 SCT250=



000
FTUS42 KTBW 311100
TAFSRQ
TAF
KSRQ 311120Z 3112/0112 VRB03KT P6SM FEW040 SCT250
     FM311500 28009KT P6SM SCT040 SCT250
     FM010200 VRB03KT P6SM SCT250=



000
FTUS42 KTBW 311100
TAFPIE
TAF
KPIE 311120Z 3112/0112 03006KT P6SM FEW040 SCT250
     FM311700 30009KT P6SM SCT040 SCT250
     FM010200 VRB03KT P6SM SCT250=



000
FTUS42 KTBW 311100
TAFFMY
TAF
KFMY 311120Z 3112/0112 VRB03KT P6SM FEW040 SCT250
     FM311600 26008KT P6SM VCTS SCT040CB BKN250
     FM010100 VRB03KT P6SM FEW040 SCT250=



000
FTUS42 KTBW 311100
TAFTPA
TAF
KTPA 311120Z 3112/0112 VRB03KT P6SM FEW040 SCT250
     FM311500 26008KT P6SM SCT040 SCT250
     FM010200 VRB03KT P6SM SCT250=



000
FTUS42 KTBW 310900 AAA
TAFTPA
TAF AMD
KTPA 310901Z 3109/0106 VRB03KT P6SM FEW050 SCT250
     FM311500 26007KT P6SM FEW040 SCT250
     FM010200 33003KT P6SM SCT250=



000
FTUS42 KTBW 310500
TAFRSW
TAF
KRSW 310536Z 3106/0106 VRB03KT P6SM FEW060 SCT100 BKN250
     FM311600 27007KT P6SM VCTS SCT030CB BKN250
     FM010100 VRB03KT P6SM FEW040 SCT250=



000
FTUS42 KTBW 310500
TAFFMY
TAF
KFMY 310536Z 3106/0106 VRB03KT P6SM FEW060 SCT100 BKN250
     FM311600 27008KT P6SM VCTS SCT030CB BKN250
     FM010100 VRB03KT P6SM FEW040 SCT250=



000
FTUS42 KTBW 310500
TAFTPA
TAF
KTPA 310536Z 3106/0106 36003KT P6SM FEW050 SCT250
     FM311500 26007KT P6SM FEW040 SCT250
     FM010200 33003KT P6SM SCT250=



000
FTUS42 KTBW 310500
TAFSRQ
TAF
KSRQ 310536Z 3106/0106 01003KT P6SM FEW050 SCT250
     FM311500 29009KT P6SM FEW040 SCT250
     FM010200 32003KT P6SM SCT250=



000
FTUS42 KTBW 310500
TAFPIE
TAF
KPIE 310536Z 3106/0106 36005KT P6SM FEW050 SCT250
     FM311200 03005KT P6SM FEW030 SCT250
     FM311800 31010KT P6SM FEW040 SCT250
     FM010200 34003KT P6SM SCT250=



000
FTUS42 KTBW 310200 AAA
TAFTPA
TAF AMD
KTPA 310259Z 3103/3124 34004KT P6SM FEW050 SCT250
     FM311500 26007KT P6SM FEW040 SCT250=



000
FTUS42 KTBW 302300 RRA
TAFFMY
TAF
KFMY 302341Z 3100/3124 28008KT P6SM SCT040 SCT250
     FM310200 VRB03KT P6SM FEW250
     FM311500 26006KT P6SM FEW030 SCT250
     FM311800 27007KT P6SM VCTS SCT040CB SCT250=



000
FTUS42 KTBW 302300 RRA
TAFRSW
TAF
KRSW 302341Z 3100/3124 26008KT P6SM SCT040 SCT250
     FM310200 VRB03KT P6SM FEW250
     FM311500 23006KT P6SM FEW030 SCT250
     FM311800 25007KT P6SM VCTS SCT040CB SCT250=



000
FTUS42 KTBW 302300 RRA
TAFPIE
TAF
KPIE 302341Z 3100/3124 31008KT P6SM FEW250
     FM310400 VRB04KT P6SM FEW250
     FM311500 03005KT P6SM FEW030 SCT250
     FM311800 32008KT P6SM FEW040 SCT250=



000
FTUS42 KTBW 302300 RRA
TAFTPA
TAF
KTPA 302341Z 3100/3124 31007KT P6SM FEW050 FEW250
     FM310300 VRB03KT P6SM FEW250
     FM311500 26007KT P6SM FEW040 SCT250=



000
FTUS42 KTBW 302300 RRA
TAFSRQ
TAF
KSRQ 302341Z 3100/3124 30008KT P6SM FEW250
     FM310100 VRB03KT P6SM FEW250
     FM311500 29007KT P6SM FEW040 SCT250=



000
FTUS42 KTBW 302100 AAA
TAFTPA
TAF AMD
KTPA 302103Z 3021/3118 31007KT P6SM FEW050 SCT250
     FM310100 32003KT P6SM FEW050 FEW250
     FM311400 22004KT P6SM FEW250=



000
FTUS42 KTBW 301700
TAFSRQ
TAF
KSRQ 301735Z 3018/3118 27007KT P6SM FEW040 SCT250
     FM310100 32003KT P6SM FEW050 FEW250
     FM311400 22004KT P6SM FEW250=



000
FTUS42 KTBW 301700
TAFRSW
TAF
KRSW 301735Z 3018/3118 27010KT P6SM VCTS SCT035CB BKN120
     FM310000 30005KT P6SM BKN250
     FM311400 23006KT P6SM FEW040 SCT250=



000
FTUS42 KTBW 301700
TAFPIE
TAF
KPIE 301735Z 3018/3118 31008KT P6SM FEW040 SCT250
     FM310100 32004KT P6SM FEW250
     FM311700 27008KT P6SM SCT250=



000
FTUS42 KTBW 301700
TAFFMY
TAF
KFMY 301735Z 3018/3118 27010KT P6SM VCTS SCT035CB BKN120
     FM310000 30004KT P6SM BKN250
     FM311400 23006KT P6SM FEW040 SCT250=



000
FTUS42 KTBW 301700
TAFTPA
TAF
KTPA 301735Z 3018/3118 27007KT P6SM FEW040 SCT250
     FM310100 32003KT P6SM FEW050 FEW250
     FM311400 22004KT P6SM FEW250=



000
FTUS42 KTBW 301500 AAA
TAFTPA
TAF AMD
KTPA 301502Z 3015/3112 VRB04KT P6SM SCT045 SCT250
     FM301600 25006KT P6SM SCT035 SCT250
     FM301800 27010KT P6SM SCT040 SCT250
     FM302300 30006KT P6SM FEW040 SCT250
     FM310300 VRB03KT P6SM SKC=



000
FTUS42 KTBW 301100
TAFSRQ
TAF
KSRQ 301120Z 3012/3112 VRB04KT P6SM FEW020 SCT250
     FM301400 VRB05KT P6SM SCT025 SCT250
     FM301600 28007KT P6SM SCT030 SCT250
     FM301800 28010KT P6SM SCT035 SCT250
     FM302300 31006KT P6SM FEW030 SCT250
     FM310300 VRB03KT P6SM SKC=



000
FTUS42 KTBW 301100
TAFTPA
TAF
KTPA 301120Z 3012/3112 VRB03KT P6SM FEW020 SCT250
     FM301400 VRB04KT P6SM SCT025 SCT250
     FM301600 25006KT P6SM SCT035 SCT250
     FM301800 27010KT P6SM SCT040 SCT250
     FM302300 30006KT P6SM FEW040 SCT250
     FM310300 VRB03KT P6SM SKC=



000
FTUS42 KTBW 301100
TAFFMY
TAF
KFMY 301120Z 3012/3112 VRB03KT P6SM VCSH SCT020 SCT100 BKN250
     FM301400 27005KT P6SM VCTS SCT025CB SCT100 BKN250
     FM301800 27009KT P6SM SCT035 SCT100 BKN250
     FM310100 VRB03KT P6SM FEW030 SCT250=



000
FTUS42 KTBW 301100
TAFPIE
TAF
KPIE 301120Z 3012/3112 VRB03KT P6SM FEW020 SCT250
     FM301400 02005KT P6SM SCT025 SCT250
     FM301700 VRB05KT P6SM SCT035 SCT250
     FM302000 31010KT P6SM SCT040 SCT250
     FM302300 31006KT P6SM FEW040 SCT250
     FM310300 VRB04KT P6SM SKC=



000
FTUS42 KTBW 301100
TAFRSW
TAF
KRSW 301120Z 3012/3112 VRB03KT P6SM VCSH SCT020 SCT100 BKN250
     FM301400 27005KT P6SM VCTS SCT025CB SCT100 BKN250
     FM301800 27009KT P6SM SCT035 SCT100 BKN250
     FM310100 VRB03KT P6SM FEW030 SCT250=



000
FTUS42 KTBW 300900 AAA
TAFTPA
TAF AMD
KTPA 300946Z 3010/3106 VRB03KT P6SM FEW020 SCT250
     FM301400 VRB04KT P6SM SCT025 SCT250
     FM301600 25006KT P6SM SCT035 SCT250
     FM301800 27010KT P6SM SCT040 SCT250
     FM302300 30006KT P6SM FEW040 SCT250
     FM310300 VRB03KT P6SM SCT250=



000
FTUS42 KTBW 300900 AAB
TAFSRQ
TAF AMD
KSRQ 300907Z 3009/3106 34006KT P6SM VCTS SCT020CB SCT250
      TEMPO 3009/3011 4SM SHRA BKN020
     FM301100 36005KT P6SM FEW020 SCT250
     FM301400 VRB05KT P6SM SCT025 SCT250
     FM301600 28007KT P6SM SCT035 SCT250
     FM301800 28010KT P6SM SCT040 SCT250
     FM302300 31006KT P6SM FEW040 SCT250
     FM310300 VRB03KT P6SM SCT250=



000
FTUS42 KTBW 300700 AAA
TAFSRQ
TAF AMD
KSRQ 300712Z 3007/3106 31007KT P6SM VCTS SCT020CB SCT250
      TEMPO 3007/3009 VRB13G20KT 4SM SHRA BKN020
     FM301000 31005KT P6SM FEW020 SCT250
     FM301400 30005KT P6SM SCT025 SCT250
     FM301600 28007KT P6SM SCT035 SCT250
     FM301800 28010KT P6SM SCT040 SCT250
     FM302300 31006KT P6SM FEW040 SCT250
     FM310300 VRB03KT P6SM SCT250=



000
FTUS42 KTBW 300500
TAFSRQ
TAF
KSRQ 300540Z 3006/3106 27008KT P6SM VCSH SCT020 SCT250
      TEMPO 3006/3010 BKN020
     FM301000 31005KT P6SM FEW020 SCT250
     FM301400 30005KT P6SM SCT025 SCT250
     FM301600 28007KT P6SM SCT035 SCT250
     FM301800 28010KT P6SM SCT040 SCT250
     FM302300 31006KT P6SM FEW040 SCT250
     FM310300 VRB03KT P6SM SCT250=



000
FTUS42 KTBW 300500
TAFFMY
TAF
KFMY 300540Z 3006/3106 25004KT P6SM FEW020 SCT250
     FM301000 25004KT P6SM VCSH SCT020 SCT250
      TEMPO 3010/3014 BKN020
     FM301400 27005KT P6SM VCTS SCT025CB SCT250
     FM301800 27009KT P6SM SCT040 SCT250
     FM310000 VRB03KT P6SM FEW030 SCT250=



000
FTUS42 KTBW 300500
TAFRSW
TAF
KRSW 300540Z 3006/3106 25004KT P6SM FEW020 SCT250
     FM301000 25004KT P6SM VCSH SCT020 SCT250
      TEMPO 3010/3014 BKN020
     FM301400 27005KT P6SM VCTS SCT025CB SCT250
     FM301800 27009KT P6SM SCT040 SCT250
     FM310000 VRB03KT P6SM FEW030 SCT250=



000
FTUS42 KTBW 300500
TAFTPA
TAF
KTPA 300540Z 3006/3106 31004KT P6SM SCT020 SCT250
     FM301000 34004KT P6SM FEW020 SCT250
     FM301400 VRB04KT P6SM SCT025 SCT250
     FM301600 25006KT P6SM SCT035 SCT250
     FM301800 27010KT P6SM SCT040 SCT250
     FM302300 30006KT P6SM FEW040 SCT250
     FM310300 VRB03KT P6SM SCT250=



000
FTUS42 KTBW 300500
TAFPIE
TAF
KPIE 300540Z 3006/3106 31005KT P6SM SCT020 SCT250
     FM301000 34005KT P6SM FEW020 SCT250
     FM301400 02005KT P6SM SCT025 SCT250
     FM301700 VRB05KT P6SM SCT035 SCT250
     FM302000 31010KT P6SM SCT040 SCT250
     FM302300 31006KT P6SM FEW040 SCT250
     FM310300 VRB04KT P6SM SCT250=



000
FTUS42 KTBW 300300 AAA
TAFTPA
TAF AMD
KTPA 300307Z 3003/3024 28005KT P6SM FEW020 SCT250
     FM301000 31004KT P6SM FEW020 SCT250
     FM301500 33006KT P6SM SCT020 SCT250
     FM301800 26010KT P6SM VCTS SCT025CB SCT250=



000
FTUS42 KTBW 292300
TAFTPA
TAF
KTPA 292339Z 3000/3024 30010KT P6SM SCT035 BKN250
     FM300400 VRB04KT P6SM SCT020 BKN250
     FM301500 33006KT P6SM SCT020 SCT250
     FM301800 26010KT P6SM VCTS SCT025CB SCT250=



000
FTUS42 KTBW 292300
TAFFMY
TAF
KFMY 292339Z 3000/3024 30008KT P6SM VCTS SCT025CB BKN150
     FM300200 24005KT P6SM SCT020 BKN150
     FM301300 00000KT P6SM VCSH SCT025 BKN100
     FM301800 27008KT P6SM VCTS SCT025CB BKN120=



000
FTUS42 KTBW 292300
TAFPIE
TAF
KPIE 292339Z 3000/3024 30011KT P6SM SCT035 BKN250
     FM300400 VRB05KT P6SM SCT020 BKN250
     FM301500 33006KT P6SM SCT020 SCT250
     FM301800 26010KT P6SM VCTS SCT025CB SCT250=



000
FTUS42 KTBW 292300
TAFSRQ
TAF
KSRQ 292339Z 3000/3024 27008KT P6SM SCT035 BKN250
     FM300400 VRB04KT P6SM SCT020 BKN250
     FM301400 VRB06KT P6SM VCSH SCT020 SCT250
     FM301700 27008KT P6SM VCTS SCT025CB SCT250=



000
FTUS42 KTBW 292300
TAFRSW
TAF
KRSW 292339Z 3000/3024 25008KT P6SM VCTS SCT025CB BKN150
     FM300200 24005KT P6SM SCT020 BKN150
     FM301300 00000KT P6SM VCSH SCT025 BKN100
     FM301800 27008KT P6SM VCTS SCT025CB BKN120=



000
FTUS42 KTBW 292300 AAA
TAFSRQ
TAF AMD
KSRQ 292302Z 2923/3018 VRB06KT 5SM TSRA SCT020CB BKN100
     FM300000 27010KT P6SM VCTS SCT030CB BKN100
     FM300100 28008KT P6SM VCSH SCT025 SCT100 BKN250
     FM301300 29005KT P6SM VCTS SCT025CB BKN050=



000
FTUS42 KTBW 292200 AAB
TAFPIE
TAF AMD
KPIE 292210Z 2922/3018 27013KT P6SM VCTS SCT030CB BKN100
      TEMPO 2922/2923 VRB15G25KT 4SM TSRA BKN025CB
     FM300200 VRB06KT P6SM SCT025 SCT100 BKN250
     FM301300 VRB05KT P6SM FEW020 SCT035=



000
FTUS42 KTBW 292200 AAA
TAFRSW
TAF AMD
KRSW 292209Z 2922/3018 27013KT P6SM VCTS SCT030CB BKN100
      TEMPO 2922/2923 VRB15G25KT 4SM TSRA BKN025CB
     FM292300 27010KT P6SM VCTS SCT030CB BKN100
     FM300100 24005KT P6SM VCSH SCT025 BKN100
     FM301300 VRB05KT P6SM VCTS SCT025CB BKN050=



000
FTUS42 KTBW 292100 AAA
TAFTPA
TAF AMD
KTPA 292100Z 2921/3018 26012KT P6SM SCT025 BKN100
     FM300200 VRB06KT P6SM SCT025 SCT100 BKN250
     FM301300 VRB05KT P6SM FEW020 SCT035=



000
FTUS42 KTBW 291800 AAA
TAFPIE
TAF AMD
KPIE 291835Z 2919/3018 27013KT P6SM VCTS SCT030CB BKN100
      TEMPO 2919/2921 VRB15G25KT 4SM TSRA BKN025CB
     FM300200 VRB06KT P6SM SCT025 SCT100 BKN250
     FM301300 VRB05KT P6SM FEW020 SCT035=



000
FTUS42 KTBW 291700
TAFFMY
TAF
KFMY 291740Z 2918/3018 27013KT P6SM VCTS SCT030CB BKN100
      TEMPO 2918/2921 VRB15G25KT 4SM TSRA BKN025CB
     FM292200 27010KT P6SM VCTS SCT030CB BKN100
     FM300100 24005KT P6SM VCSH SCT025 BKN100
     FM301300 VRB05KT P6SM VCTS SCT025CB BKN050=



000
FTUS42 KTBW 291700
TAFTPA
TAF
KTPA 291740Z 2918/3018 27011KT P6SM VCTS SCT030CB BKN100
      TEMPO 2918/2921 VRB15G25KT 4SM TSRA BKN025CB
     FM300200 VRB06KT P6SM SCT025 SCT100 BKN250
     FM301300 VRB05KT P6SM FEW020 SCT035=



000
FTUS42 KTBW 291700
TAFRSW
TAF
KRSW 291740Z 2918/3018 27013KT P6SM VCTS SCT030CB BKN100
      TEMPO 2918/2921 VRB15G25KT 4SM TSRA BKN025CB
     FM292200 27010KT P6SM VCTS SCT030CB BKN100
     FM300100 24005KT P6SM VCSH SCT025 BKN100
     FM301300 VRB05KT P6SM VCTS SCT025CB BKN050=



000
FTUS42 KTBW 291700
TAFPIE
TAF
KPIE 291740Z 2918/3018 27013G20KT P6SM VCTS SCT030CB BKN100
      TEMPO 2918/2921 VRB15G25KT 4SM TSRA BKN025CB
     FM300200 VRB06KT P6SM SCT025 SCT100 BKN250
     FM301300 VRB05KT P6SM FEW020 SCT035=



000
FTUS42 KTBW 291700
TAFSRQ
TAF
KSRQ 291740Z 2918/3018 27013G20KT P6SM VCTS SCT030CB BKN100
      TEMPO 2918/2921 VRB15G25KT 4SM TSRA BKN025CB
     FM292200 27010KT P6SM VCTS SCT030CB BKN100
     FM300100 28008KT P6SM VCSH SCT025 SCT100 BKN250
     FM301300 29005KT P6SM VCTS SCT025CB BKN050=



000
FTUS42 KTBW 291700 AAE
TAFPIE
TAF AMD
KPIE 291709Z 2917/3012 27013G20KT P6SM VCTS SCT030CB BKN100
      TEMPO 2917/2919 VRB25G35KT 3/4SM TSRA BKN005 BKN025CB
     FM292200 26010KT P6SM SCT030 BKN100 BKN250
     FM300100 25006KT P6SM SCT025 SCT100 BKN250=



000
FTUS42 KTBW 291700 AAD
TAFPIE
TAF AMD
KPIE 291707Z 2917/3012 27013G20KT P6SM VCTS SCT030CB BKN100
      TEMPO 2917/2919 VRB25G35KT 3/4SM TSRA BKN025CB
     FM292200 26010KT P6SM SCT030 BKN100 BKN250
     FM300100 25006KT P6SM SCT025 SCT100 BKN250=



000
FTUS42 KTBW 291600 AAC
TAFSRQ
TAF AMD
KSRQ 291604Z 2916/3012 27013G20KT P6SM VCTS SCT030CB BKN100
      TEMPO 2916/2919 VRB15G25KT 4SM TSRA BKN025CB
     FM292200 27010KT P6SM VCTS SCT030CB BKN100
     FM300100 26008KT P6SM VCSH SCT025 SCT100 BKN250=



000
FTUS42 KTBW 291600 AAE
TAFTPA
TAF AMD
KTPA 291603Z 2916/3012 28013KT P6SM VCTS SCT030CB BKN100
      TEMPO 2916/2919 VRB15G25KT 4SM TSRA BKN025CB
     FM292200 26010KT P6SM SCT030 BKN100 BKN250
     FM300100 25008KT P6SM SCT025 SCT100 BKN250=



000
FTUS42 KTBW 291600 AAC
TAFPIE
TAF AMD
KPIE 291603Z 2916/3012 27013G20KT P6SM VCTS SCT030CB BKN100
      TEMPO 2916/2919 VRB15G25KT 4SM TSRA BKN025CB
     FM292200 26010KT P6SM SCT030 BKN100 BKN250
     FM300100 25006KT P6SM SCT025 SCT100 BKN250=



000
FTUS42 KTBW 291500 AAD
TAFTPA
TAF AMD
KTPA 291521Z 2915/3012 28013KT P6SM VCTS SCT030CB BKN100
      TEMPO 2915/2917 VRB15G25KT 4SM SHRA BKN030
     FM292200 26010KT P6SM SCT030 BKN100 BKN250
     FM300100 25008KT P6SM SCT025 SCT100 BKN250=



000
FTUS42 KTBW 291500 AAC
TAFTPA
TAF AMD
KTPA 291500Z 2915/3012 30013KT P6SM VCTS SCT030CB BKN100
      TEMPO 2915/2917 4SM SHRA BKN030
     FM292200 26010KT P6SM SCT030 BKN100 BKN250
     FM300100 25008KT P6SM SCT025 SCT100 BKN250=



000
FTUS42 KTBW 291400 AAB
TAFRSW
TAF AMD
KRSW 291457Z 2915/3012 27011KT P6SM VCTS SCT025CB SCT100 BKN250
     FM291700 27013G20KT P6SM VCTS SCT030CB BKN100
     FM292200 27010KT P6SM VCTS SCT030CB BKN100
     FM300100 24005KT P6SM VCSH SCT025 BKN100=



000
FTUS42 KTBW 291400 AAB
TAFTPA
TAF AMD
KTPA 291457Z 2915/3012 26013KT P6SM VCTS SCT030CB BKN100
      TEMPO 2915/2917 4SM SHRA BKN030
     FM292200 26010KT P6SM SCT030 BKN100 BKN250
     FM300100 25008KT P6SM SCT025 SCT100 BKN250=



000
FTUS42 KTBW 291400 AAB
TAFSRQ
TAF AMD
KSRQ 291457Z 2915/3012 27013G20KT P6SM VCTS SCT025CB SCT100 BKN250
      TEMPO 2915/2917 4SM SHRA BKN025
     FM291700 27013G20KT P6SM VCTS SCT030CB BKN100
     FM292200 27010KT P6SM VCTS SCT030CB BKN100
     FM300100 26008KT P6SM VCSH SCT025 SCT100 BKN250=



000
FTUS42 KTBW 291400 AAB
TAFPIE
TAF AMD
KPIE 291457Z 2915/3012 27010KT P6SM VCTS SCT025CB SCT100 BKN250
      TEMPO 2915/2917 4SM SHRA BKN025
     FM291700 26013G20KT P6SM VCTS SCT030CB BKN100
     FM292200 26010KT P6SM SCT030 BKN100 BKN250
     FM300100 25006KT P6SM SCT025 SCT100 BKN250=



000
FTUS42 KTBW 291400 AAE
TAFFMY
TAF AMD
KFMY 291457Z 2915/3012 27011KT P6SM VCTS SCT025CB SCT100 BKN250
     FM291700 27013G20KT P6SM VCTS SCT030CB BKN100
     FM292200 27010KT P6SM VCTS SCT030CB BKN100
     FM300100 24005KT P6SM VCSH SCT025 BKN100=



    US Dept of Commerce
    National Oceanic and Atmospheric Administration
    National Weather Service
    1325 East West Highway
    Silver Spring, MD 20910
    Page Author: NWS Internet Services Team
Disclaimer
Information Quality
Credits
Glossary
Privacy Policy
Freedom of Information Act (FOIA)
About Us
Career Opportunities